Flight Track Log - Related Links

Times and Time Zones

All times are in EDT time to prevent confusion due to time zone crossing. See the N6198F flight status page for this flight to view local times or setup timezone preferences in your user account.

Time Position Orientation Groundspeed Altitude Reporting Facility
EDT Latitude Longitude Course Direction KTS MPH feet Rate Location/Type
Sat 02:08:00 PM 34.5026 -86.6322 139° Southeast  Level FlightAware Approximate
Sat 02:09:00 PM 34.4801 -86.6084 139° Southeast  Level FlightAware Approximate
Sat 02:10:00 PM 34.4577 -86.5847 139° Southeast  Level FlightAware Approximate
Sat 02:11:00 PM 34.4352 -86.5610 139° Southeast  Level FlightAware Approximate
Sat 02:12:00 PM 34.4128 -86.5372 139° Southeast  Level FlightAware Approximate
Sat 02:13:00 PM 34.3903 -86.5135 139° Southeast  Level FlightAware Approximate
Sat 02:14:00 PM 34.3675 -86.4902 140° Southeast  Level Estimated
Sat 02:15:00 PM 34.3448 -86.4669 140° Southeast  Level FlightAware Approximate
Sat 02:16:00 PM 34.3220 -86.4436 140° Southeast  Level FlightAware Approximate
Sat 02:17:00 PM 34.2993 -86.4204 140° Southeast  Level FlightAware Approximate
Sat 02:18:00 PM 34.2765 -86.3971 140° Southeast  Level FlightAware Approximate
Sat 02:19:00 PM 34.2537 -86.3739 140° Southeast  Level FlightAware Approximate
Sat 02:20:00 PM 34.2309 -86.3506 140° Southeast  Level FlightAware Approximate
Sat 02:21:00 PM 34.2082 -86.3274 140° Southeast  Level FlightAware Approximate
Sat 02:22:00 PM 34.1854 -86.3042 140° Southeast  Level FlightAware Approximate
Sat 02:23:00 PM 34.1626 -86.2811 140° Southeast  Level Estimated
Sat 02:24:00 PM 34.1398 -86.2579 140° Southeast  Level FlightAware Approximate
Sat 02:25:00 PM 34.1169 -86.2348 140° Southeast  Level Estimated
Sat 02:26:00 PM 34.0941 -86.2117 140° Southeast  Level FlightAware Approximate
Sat 02:27:00 PM 34.0712 -86.1886 140° Southeast  Level Estimated
Sat 02:28:00 PM 34.0484 -86.1655 140° Southeast  Level Estimated
Sat 02:29:00 PM 34.0255 -86.1424 140° Southeast  Level Estimated
Sat 02:30:00 PM 34.0027 -86.1194 140° Southeast  Level Estimated
Sat 02:31:00 PM 33.9798 -86.0963 140° Southeast  Level Estimated
Sat 02:32:00 PM 33.9726 -86.0891 140° Southeast  Level Estimated
Sat 02:33:00 PM 33.9726 -86.0891 140° Southeast  Level Estimated
Sat 02:34:00 PM 33.9726 -86.0891 140° Southeast  Level Estimated
Sat 02:35:00 PM 33.9726 -86.0891 140° Southeast  Level Estimated
Sat 02:36:00 PM 33.9726 -86.0891 140° Southeast  Level Estimated
Sat 02:37:00 PM 33.9726 -86.0891 140° Southeast  Level Estimated
Sat 02:38:00 PM 33.9726 -86.0891 140° Southeast  Level Estimated
Sat 02:39:00 PM 33.9726 -86.0891 140° Southeast  Level Estimated
Sat 02:40:00 PM 33.9726 -86.0891 140° Southeast  Level Estimated
Sat 02:41:00 PM 33.9726 -86.0891 140° Southeast  Level Estimated
Sat 02:42:00 PM 33.9726 -86.0891 140° Southeast  Level Estimated
Sat 02:43:00 PM 33.9726 -86.0891 140° Southeast  Level Estimated
Sat 02:44:00 PM 33.9726 -86.0891 140° Southeast  Level Estimated
Sat 02:45:00 PM 33.9726 -86.0891 140° Southeast  Level Estimated
Sat 02:46:00 PM 33.9726 -86.0891 140° Southeast  Level Estimated
Sat 02:47:00 PM 33.9726 -86.0891 140° Southeast  Level Estimated

Login

Don't have an account? Register now (free) for customized features, flight alerts, and more!